createdAt,value
2022-10-04T00:00:13.354Z,1.10
2022-10-04T00:02:46.859Z,1.10
2022-10-04T00:05:18.558Z,1.00
2022-10-04T00:07:51.074Z,1.25
2022-10-04T00:10:40.324Z,1.00
2022-10-04T00:13:23.656Z,1.23
2022-10-04T00:15:51.373Z,1.13
2022-10-04T00:18:22.609Z,1.10
2022-10-04T00:20:53.195Z,1.10
2022-10-04T00:23:25.652Z,1.23
2022-10-04T00:26:00.887Z,1.27
2022-10-04T00:28:43.243Z,1.77
2022-10-04T00:31:17.704Z,1.42
2022-10-04T00:33:49.864Z,1.30
2022-10-04T00:36:25.255Z,1.10
2022-10-04T00:39:06.851Z,1.20
2022-10-04T00:41:48.898Z,1.45
2022-10-04T00:44:28.930Z,1.40
2022-10-04T00:47:01.202Z,1.20
2022-10-04T00:49:39.302Z,1.30
2022-10-04T00:52:14.511Z,1.23
2022-10-04T00:54:50.353Z,1.27
2022-10-04T00:57:26.943Z,1.13
2022-10-04T00:59:58.929Z,1.20
2022-10-04T01:02:46.528Z,1.13
2022-10-04T01:05:29.786Z,1.33
2022-10-04T01:08:05.124Z,1.20
2022-10-04T01:10:36.559Z,1.30
2022-10-04T01:13:09.634Z,1.30
2022-10-04T01:15:36.640Z,1.60
2022-10-04T01:18:09.485Z,1.30
2022-10-04T01:20:59.218Z,1.42
2022-10-04T01:23:44.370Z,1.20
2022-10-04T01:26:42.117Z,1.15
2022-10-04T01:29:29.444Z,1.30
2022-10-04T01:31:58.423Z,1.20
2022-10-04T01:34:27.796Z,1.23
2022-10-04T01:36:56.685Z,1.10
2022-10-04T01:39:25.786Z,1.33
2022-10-04T01:42:01.715Z,1.33
2022-10-04T01:44:33.391Z,1.73
2022-10-04T01:47:06.170Z,1.30
2022-10-04T01:49:36.556Z,1.10
2022-10-04T01:52:13.432Z,1.25
2022-10-04T01:54:44.011Z,1.63
2022-10-04T01:57:24.492Z,1.45
2022-10-04T02:02:24.452Z,1.40
2022-10-04T02:04:55.718Z,1.30
2022-10-04T02:07:26.157Z,1.33
2022-10-04T02:09:59.350Z,1.63
2022-10-04T02:12:28.406Z,1.55
2022-10-04T02:14:56.713Z,1.38
2022-10-04T02:17:32.882Z,1.38
2022-10-04T02:20:01.867Z,1.50
2022-10-04T02:22:29.268Z,1.48
2022-10-04T02:24:57.904Z,1.20
2022-10-04T02:27:30.011Z,1.20
2022-10-04T02:30:11.170Z,1.30
2022-10-04T02:32:59.704Z,1.27
2022-10-04T02:35:31.726Z,1.50
2022-10-04T02:38:23.391Z,1.25
2022-10-04T02:41:20.544Z,1.63
2022-10-04T02:43:57.836Z,1.60
2022-10-04T02:46:52.879Z,1.52
2022-10-04T02:49:32.087Z,1.70
2022-10-04T02:52:05.656Z,1.58
2022-10-04T02:54:45.531Z,1.20
2022-10-04T02:57:16.128Z,1.45
2022-10-04T02:59:42.829Z,1.40
2022-10-04T03:02:30.130Z,1.60
2022-10-04T03:05:04.711Z,1.50
2022-10-04T03:07:33.479Z,1.48
2022-10-04T03:10:01.117Z,1.40
2022-10-04T03:12:27.637Z,1.50
2022-10-04T03:14:55.176Z,1.60
2022-10-04T03:17:22.360Z,1.30
2022-10-04T03:19:50.213Z,1.77
2022-10-04T03:22:17.372Z,1.40
2022-10-04T03:24:53.566Z,1.77
2022-10-04T03:27:24.931Z,1.60
2022-10-04T03:29:53.584Z,1.80
2022-10-04T03:32:23.638Z,1.88
2022-10-04T03:34:57.265Z,2.00
2022-10-04T03:37:25.892Z,1.92
2022-10-04T03:39:55.071Z,1.80
2022-10-04T03:42:28.730Z,1.60
2022-10-04T03:45:06.268Z,1.77
2022-10-04T03:47:43.603Z,1.70
2022-10-04T03:50:26.882Z,1.52
2022-10-04T03:53:06.109Z,1.50
2022-10-04T03:55:38.130Z,1.92
2022-10-04T03:58:06.592Z,1.40
2022-10-04T04:00:40.285Z,1.90
2022-10-04T04:03:11.497Z,1.88
2022-10-04T04:05:50.265Z,1.67
2022-10-04T04:08:41.977Z,1.83
2022-10-04T04:11:19.017Z,1.67
2022-10-04T04:13:58.414Z,1.80
2022-10-04T04:16:26.523Z,1.70
2022-10-04T04:18:55.586Z,2.10
2022-10-04T04:21:25.937Z,1.60
2022-10-04T04:24:14.486Z,1.60
2022-10-04T04:26:47.510Z,1.50
2022-10-04T04:29:23.221Z,1.73
2022-10-04T04:32:14.612Z,1.90
2022-10-04T04:34:57.250Z,1.65
2022-10-04T04:37:24.353Z,1.65
2022-10-04T04:39:57.889Z,1.58
2022-10-04T04:42:34.973Z,1.83
2022-10-04T04:45:14.232Z,1.40
2022-10-04T04:47:47.048Z,1.73
2022-10-04T04:50:33.043Z,1.77
2022-10-04T04:53:18.126Z,1.65
2022-10-04T04:56:10.496Z,2.00
2022-10-04T04:58:41.983Z,1.75
2022-10-04T05:01:17.447Z,1.70
2022-10-04T05:03:44.103Z,1.92
2022-10-04T05:06:27.622Z,1.67
2022-10-04T05:08:54.121Z,2.13
2022-10-04T05:11:25.767Z,1.77
2022-10-04T05:14:00.802Z,1.60
2022-10-04T05:16:47.333Z,1.60
2022-10-04T05:19:31.142Z,1.70
2022-10-04T05:22:01.184Z,1.60
2022-10-04T05:24:30.362Z,1.67
2022-10-04T05:27:00.369Z,1.25
2022-10-04T05:29:35.588Z,1.90
2022-10-04T05:32:23.722Z,1.70
2022-10-04T05:34:51.250Z,1.83
2022-10-04T05:37:34.881Z,1.85
2022-10-04T05:40:13.203Z,1.70
2022-10-04T05:42:45.283Z,1.58
2022-10-04T05:45:19.050Z,1.83
2022-10-04T05:47:50.261Z,1.77
2022-10-04T05:50:28.090Z,1.40
2022-10-04T05:53:27.255Z,1.75
2022-10-04T05:56:30.926Z,1.50
2022-10-04T05:59:12.376Z,2.17
2022-10-04T06:02:07.604Z,2.25
2022-10-04T06:04:44.055Z,1.77
2022-10-04T06:07:29.066Z,1.80
2022-10-04T06:10:17.252Z,1.92
2022-10-04T06:13:12.818Z,1.98
2022-10-04T06:16:07.133Z,1.70
2022-10-04T06:18:51.640Z,2.05
2022-10-04T06:21:52.166Z,2.03
2022-10-04T06:24:27.038Z,1.63
2022-10-04T06:27:01.232Z,1.88
2022-10-04T06:29:33.725Z,2.00
2022-10-04T06:32:33.008Z,1.90
2022-10-04T06:35:08.282Z,1.80
2022-10-04T06:37:46.989Z,1.85
2022-10-04T06:40:16.553Z,1.98
2022-10-04T06:43:19.109Z,2.10
2022-10-04T06:45:51.591Z,1.77
2022-10-04T06:48:37.007Z,1.75
2022-10-04T06:51:33.141Z,1.88
2022-10-04T06:54:21.816Z,1.80
2022-10-04T06:57:08.332Z,1.70
2022-10-04T06:59:49.707Z,2.05
2022-10-04T07:02:25.740Z,1.75
2022-10-04T07:05:09.291Z,1.67
2022-10-04T07:07:41.943Z,1.80
2022-10-04T07:10:08.452Z,1.80
2022-10-04T07:12:41.544Z,1.70
2022-10-04T07:15:24.422Z,1.80
2022-10-04T07:17:53.480Z,2.05
2022-10-04T07:20:28.142Z,2.03
2022-10-04T07:23:14.245Z,2.15
2022-10-04T07:25:52.123Z,1.90
2022-10-04T07:28:50.292Z,1.70
2022-10-04T07:31:29.878Z,1.85
2022-10-04T07:34:18.368Z,1.60
2022-10-04T07:36:54.192Z,2.00
2022-10-04T07:39:57.994Z,2.42
2022-10-04T07:42:32.611Z,2.17
2022-10-04T07:45:29.765Z,1.75
2022-10-04T07:48:05.244Z,1.80
2022-10-04T07:50:39.879Z,1.90
2022-10-04T07:53:16.200Z,1.90
2022-10-04T07:56:10.984Z,1.90
2022-10-04T07:58:47.491Z,2.10
2022-10-04T08:01:39.553Z,1.90
2022-10-04T08:04:43.051Z,2.05
2022-10-04T08:07:16.082Z,2.00
2022-10-04T08:10:31.339Z,2.03
2022-10-04T08:13:20.592Z,2.20
2022-10-04T08:15:47.150Z,1.98
2022-10-04T08:18:38.037Z,1.88
2022-10-04T08:21:08.703Z,2.03
2022-10-04T08:23:41.608Z,1.80
2022-10-04T08:26:46.286Z,1.75
2022-10-04T08:29:43.460Z,1.73
2022-10-04T08:32:28.326Z,2.05
2022-10-04T08:35:07.030Z,2.42
2022-10-04T08:38:16.839Z,1.98
2022-10-04T08:40:44.179Z,2.23
2022-10-04T08:43:16.864Z,2.15
2022-10-04T08:46:04.102Z,2.10
2022-10-04T08:49:05.898Z,2.13
2022-10-04T08:51:51.290Z,1.98
2022-10-04T08:54:40.490Z,2.10
2022-10-04T08:58:04.860Z,2.03
2022-10-04T09:01:03.169Z,1.98
2022-10-04T09:03:50.790Z,1.88
2022-10-04T09:06:38.856Z,2.10
2022-10-04T09:09:52.119Z,2.17
2022-10-04T09:12:32.855Z,1.70
2022-10-04T09:15:14.606Z,2.10
2022-10-04T09:18:21.596Z,2.47
2022-10-04T09:21:02.540Z,2.25
2022-10-04T09:23:31.881Z,1.70
2022-10-04T09:26:06.443Z,2.05
2022-10-04T09:28:42.170Z,2.15
2022-10-04T09:31:30.061Z,1.73
2022-10-04T09:34:10.813Z,2.97
2022-10-04T09:37:09.248Z,2.92
2022-10-04T09:39:54.662Z,2.75
2022-10-04T09:42:33.604Z,4.78
2022-10-04T09:45:06.434Z,4.03
2022-10-04T09:47:38.846Z,3.08
2022-10-04T09:50:11.883Z,3.38
2022-10-04T09:52:44.104Z,3.15
2022-10-04T09:55:30.139Z,3.35
2022-10-04T09:58:29.347Z,3.42
2022-10-04T10:01:16.091Z,3.53
2022-10-04T10:03:53.759Z,3.90
2022-10-04T10:06:46.598Z,3.33
2022-10-04T10:09:47.939Z,3.05
2022-10-04T10:13:08.921Z,3.33
2022-10-04T10:15:48.458Z,3.30
2022-10-04T10:18:33.584Z,3.60
2022-10-04T10:21:08.375Z,4.22
2022-10-04T10:24:12.772Z,5.38
2022-10-04T10:26:51.570Z,5.95
2022-10-04T10:29:49.328Z,6.55
2022-10-04T10:32:41.967Z,5.80
2022-10-04T10:36:00.181Z,6.40
2022-10-04T10:38:29.204Z,7.10
2022-10-04T10:41:04.656Z,6.78
2022-10-04T10:44:12.747Z,7.15
2022-10-04T10:46:39.164Z,6.50
2022-10-04T10:49:08.721Z,6.20
2022-10-04T10:51:43.939Z,6.40
2022-10-04T10:54:34.943Z,6.38
2022-10-04T10:57:29.523Z,6.30
2022-10-04T11:00:57.332Z,5.85
2022-10-04T11:03:53.387Z,6.00
2022-10-04T11:06:35.653Z,5.65
2022-10-04T11:09:20.751Z,6.10
2022-10-04T11:12:22.706Z,5.07
2022-10-04T11:15:26.966Z,5.40
2022-10-04T11:18:31.168Z,4.82
2022-10-04T11:21:25.720Z,5.05
2022-10-04T11:24:18.314Z,4.78
2022-10-04T11:27:11.274Z,4.90
2022-10-04T11:29:55.369Z,4.85
2022-10-04T11:32:40.545Z,4.60
2022-10-04T11:35:36.925Z,4.57
2022-10-04T11:38:45.482Z,4.60
2022-10-04T11:41:34.592Z,4.00
2022-10-04T11:44:03.902Z,4.22
2022-10-04T11:46:52.294Z,4.25
2022-10-04T11:49:35.543Z,3.65
2022-10-04T11:52:19.667Z,3.72
2022-10-04T11:54:55.652Z,4.10
2022-10-04T11:57:28.119Z,3.50
2022-10-04T12:00:14.219Z,3.95
2022-10-04T12:02:56.562Z,3.60
2022-10-04T12:05:35.256Z,3.63
2022-10-04T12:08:22.886Z,4.00
2022-10-04T12:11:03.936Z,3.58
2022-10-04T12:13:42.321Z,3.78
2022-10-04T12:16:41.174Z,3.58
2022-10-04T12:19:39.708Z,3.40
2022-10-04T12:22:29.781Z,3.35
2022-10-04T12:25:19.397Z,2.97
2022-10-04T12:28:11.767Z,3.13
2022-10-04T12:30:50.665Z,2.75
2022-10-04T12:33:23.639Z,3.00
2022-10-04T12:35:59.088Z,3.20
2022-10-04T12:38:37.516Z,3.25
2022-10-04T12:41:22.481Z,3.22
2022-10-04T12:43:56.628Z,3.03
2022-10-04T12:46:33.383Z,3.08
2022-10-04T12:49:21.496Z,3.10
2022-10-04T12:52:06.050Z,2.67
2022-10-04T12:54:39.275Z,2.63
2022-10-04T12:57:41.133Z,3.20
2022-10-04T13:00:14.420Z,2.58
2022-10-04T13:02:54.276Z,2.17
2022-10-04T13:05:42.645Z,2.50
2022-10-04T13:08:30.453Z,2.53
2022-10-04T13:11:16.829Z,2.42
2022-10-04T13:13:49.314Z,2.35
2022-10-04T13:19:31.821Z,2.40
2022-10-04T13:22:04.347Z,2.50
2022-10-04T13:25:02.129Z,2.65
2022-10-04T13:27:34.288Z,2.20
2022-10-04T13:30:27.697Z,2.20
2022-10-04T13:33:10.410Z,2.45
2022-10-04T13:35:48.777Z,2.10
2022-10-04T13:38:33.455Z,2.50
2022-10-04T13:41:08.987Z,1.88
2022-10-04T13:44:01.691Z,1.90
2022-10-04T13:46:50.239Z,2.03
2022-10-04T13:49:41.715Z,2.28
2022-10-04T13:52:39.038Z,2.13
2022-10-04T13:55:24.245Z,2.15
2022-10-04T13:58:12.400Z,2.22
2022-10-04T14:01:06.667Z,2.10
2022-10-04T14:04:09.514Z,2.30
2022-10-04T14:07:06.103Z,1.98
2022-10-04T14:10:02.768Z,2.08
2022-10-04T14:13:07.150Z,1.77
2022-10-04T14:15:42.446Z,2.20
2022-10-04T14:18:14.962Z,2.22
2022-10-04T14:21:06.059Z,2.33
2022-10-04T14:24:13.960Z,2.20
2022-10-04T14:27:09.589Z,2.20
2022-10-04T14:29:57.164Z,1.80
2022-10-04T14:32:54.703Z,1.70
2022-10-04T14:35:27.718Z,1.88
2022-10-04T14:38:06.178Z,2.05
2022-10-04T14:40:56.951Z,1.95
2022-10-04T14:43:47.868Z,1.77
2022-10-04T14:46:26.539Z,2.00
2022-10-04T14:49:11.601Z,1.80
2022-10-04T14:51:50.116Z,1.63
2022-10-04T14:54:22.664Z,1.98
2022-10-04T14:57:01.540Z,2.03
2022-10-04T14:59:47.209Z,2.00
2022-10-04T15:02:31.983Z,1.88
2022-10-04T15:05:01.212Z,1.63
2022-10-04T15:07:49.953Z,1.63
2022-10-04T15:10:27.067Z,2.17
2022-10-04T15:13:12.702Z,1.80
2022-10-04T15:16:01.136Z,2.00
2022-10-04T15:18:35.943Z,1.80
2022-10-04T15:21:12.313Z,1.75
2022-10-04T15:24:31.473Z,1.77
2022-10-04T15:27:29.008Z,1.83
2022-10-04T15:30:34.784Z,1.90
2022-10-04T15:33:17.888Z,1.70
2022-10-04T15:36:24.842Z,1.70
2022-10-04T15:39:23.871Z,1.80
2022-10-04T15:42:03.382Z,1.55
2022-10-04T15:44:59.508Z,1.50
2022-10-04T15:47:50.551Z,1.60
2022-10-04T15:50:25.739Z,1.77
2022-10-04T15:53:42.987Z,1.65
2022-10-04T15:56:27.862Z,1.75
2022-10-04T15:59:06.218Z,1.83
2022-10-04T16:02:09.968Z,1.55
2022-10-04T16:04:46.067Z,1.67
2022-10-04T16:07:34.333Z,1.77
2022-10-04T16:10:26.381Z,1.20
2022-10-04T16:13:00.658Z,1.40
2022-10-04T16:15:37.294Z,1.38
2022-10-04T16:18:25.270Z,1.60
2022-10-04T16:21:29.644Z,1.52
2022-10-04T16:24:18.144Z,1.40
2022-10-04T16:26:44.903Z,1.20
2022-10-04T16:29:50.948Z,1.40
2022-10-04T16:32:41.721Z,1.65
2022-10-04T16:35:45.815Z,1.98
2022-10-04T16:38:12.220Z,1.63
2022-10-04T16:40:59.891Z,1.45
2022-10-04T16:43:30.376Z,1.58
2022-10-04T16:48:57.197Z,1.60
2022-10-04T16:51:30.294Z,1.40
2022-10-04T16:54:26.111Z,1.63
2022-10-04T16:56:58.498Z,1.50
2022-10-04T16:59:37.017Z,1.38
2022-10-04T17:02:28.887Z,1.60
2022-10-04T17:05:02.692Z,1.55
2022-10-04T17:08:11.295Z,1.33
2022-10-04T17:10:50.075Z,1.40
2022-10-04T17:13:50.829Z,1.55
2022-10-04T17:17:12.477Z,1.55
2022-10-04T17:19:52.326Z,1.40
2022-10-04T17:22:28.899Z,1.70
2022-10-04T17:25:44.272Z,1.52
2022-10-04T17:28:31.395Z,1.45
2022-10-04T17:31:01.015Z,1.38
2022-10-04T17:33:53.899Z,1.40
2022-10-04T17:36:35.842Z,1.67
2022-10-04T17:39:31.977Z,1.50
2022-10-04T17:42:43.133Z,1.40
2022-10-04T17:45:51.710Z,1.30
2022-10-04T17:48:41.843Z,1.58
2022-10-04T17:51:38.985Z,1.70
2022-10-04T17:54:32.615Z,1.58
2022-10-04T17:57:04.987Z,1.60
2022-10-04T17:59:42.451Z,1.77
2022-10-04T18:02:22.472Z,1.45
2022-10-04T18:04:57.516Z,1.30
2022-10-04T18:07:34.298Z,1.70
2022-10-04T18:10:37.960Z,1.90
2022-10-04T18:13:26.584Z,1.40
2022-10-04T18:16:09.185Z,1.63
2022-10-04T18:18:45.711Z,1.73
2022-10-04T18:21:15.298Z,1.42
2022-10-04T18:24:11.464Z,1.70
2022-10-04T18:26:56.699Z,1.60
2022-10-04T18:29:41.669Z,1.83
2022-10-04T18:32:33.217Z,1.60
2022-10-04T18:35:02.531Z,1.95
2022-10-04T18:37:40.699Z,1.70
2022-10-04T18:40:18.458Z,1.80
2022-10-04T18:43:29.765Z,1.60
2022-10-04T18:46:21.091Z,1.98
2022-10-04T18:49:13.745Z,1.67
2022-10-04T18:52:11.405Z,1.80
2022-10-04T18:54:47.298Z,1.63
2022-10-04T18:57:33.811Z,1.67
2022-10-04T19:00:29.303Z,1.83
2022-10-04T19:03:06.897Z,1.65
2022-10-04T19:05:54.239Z,1.42
2022-10-04T19:08:48.306Z,1.60
2022-10-04T19:11:24.167Z,1.67
2022-10-04T19:14:25.802Z,1.65
2022-10-04T19:16:58.579Z,1.60
2022-10-04T19:20:07.055Z,1.65
2022-10-04T19:23:08.251Z,1.60
2022-10-04T19:25:34.932Z,1.52
2022-10-04T19:28:08.660Z,1.67
2022-10-04T19:31:31.008Z,1.45
2022-10-04T19:34:05.741Z,1.60
2022-10-04T19:36:36.554Z,1.52
2022-10-04T19:39:51.644Z,1.23
2022-10-04T19:42:28.980Z,1.42
2022-10-04T19:44:55.553Z,1.25
2022-10-04T19:47:40.903Z,1.30
2022-10-04T19:50:10.431Z,1.27
2022-10-04T19:53:07.611Z,1.30
2022-10-04T19:55:42.259Z,1.50
2022-10-04T19:58:33.546Z,1.30
2022-10-04T20:01:00.553Z,1.42
2022-10-04T20:03:27.576Z,1.60
2022-10-04T20:05:55.152Z,1.20
2022-10-04T20:09:02.625Z,1.10
2022-10-04T20:11:38.768Z,1.45
2022-10-04T20:14:07.245Z,1.45
2022-10-04T20:16:49.468Z,1.42
2022-10-04T20:19:39.294Z,1.17
2022-10-04T20:22:09.989Z,1.20
2022-10-04T20:24:36.480Z,1.38
2022-10-04T20:27:09.156Z,1.40
2022-10-04T20:29:38.456Z,1.50
2022-10-04T20:32:09.450Z,1.30
2022-10-04T20:34:38.919Z,1.20
2022-10-04T20:37:08.244Z,1.30
2022-10-04T20:39:40.728Z,1.45
2022-10-04T20:42:19.792Z,1.50
2022-10-04T20:44:51.146Z,1.40
2022-10-04T20:47:38.170Z,1.30
2022-10-04T20:50:27.687Z,1.25
2022-10-04T20:52:58.554Z,1.02
2022-10-04T20:55:33.977Z,1.50
2022-10-04T20:58:04.013Z,1.20
2022-10-04T21:00:35.995Z,1.10
2022-10-04T21:03:18.035Z,1.17
2022-10-04T21:05:58.201Z,1.00
2022-10-04T21:08:26.529Z,1.10
2022-10-04T21:11:19.722Z,1.10
2022-10-04T21:13:58.688Z,1.02
2022-10-04T21:16:46.033Z,1.27
2022-10-04T21:19:43.094Z,1.38
2022-10-04T21:22:15.795Z,0.90
2022-10-04T21:24:42.373Z,1.13
2022-10-04T21:27:11.253Z,1.13
2022-10-04T21:29:39.811Z,0.88
2022-10-04T21:32:06.738Z,1.05
2022-10-04T21:34:53.411Z,1.00
2022-10-04T21:37:20.308Z,1.10
2022-10-04T21:39:46.863Z,1.00
2022-10-04T21:42:13.360Z,1.10
2022-10-04T21:44:39.929Z,1.00
2022-10-04T21:47:06.552Z,1.00
2022-10-04T21:49:33.016Z,0.90
2022-10-04T21:51:59.590Z,0.90
2022-10-04T21:54:26.052Z,1.00
2022-10-04T21:56:54.099Z,0.80
2022-10-04T21:59:21.564Z,0.90
2022-10-04T22:01:48.073Z,0.95
2022-10-04T22:04:14.591Z,0.88
2022-10-04T22:06:41.423Z,1.10
2022-10-04T22:09:08.506Z,0.90
2022-10-04T22:11:35.715Z,0.90
2022-10-04T22:14:02.485Z,0.85
2022-10-04T22:16:29.288Z,0.77
2022-10-04T22:18:59.051Z,0.80
2022-10-04T22:21:25.623Z,1.02
2022-10-04T22:23:52.107Z,0.85
2022-10-04T22:26:21.663Z,0.80
2022-10-04T22:28:51.077Z,0.80
2022-10-04T22:31:25.528Z,0.93
2022-10-04T22:33:52.307Z,1.10
2022-10-04T22:36:21.618Z,0.90
2022-10-04T22:38:51.982Z,0.90
2022-10-04T22:41:19.786Z,0.93
2022-10-04T22:43:47.224Z,0.80
2022-10-04T22:46:16.322Z,1.00
2022-10-04T22:48:45.223Z,0.90
2022-10-04T22:51:12.855Z,0.90
2022-10-04T22:53:45.392Z,0.90
2022-10-04T22:56:13.963Z,1.00
2022-10-04T22:58:42.703Z,0.90
2022-10-04T23:01:14.838Z,0.90
2022-10-04T23:03:45.964Z,0.90
2022-10-04T23:06:14.283Z,0.80
2022-10-04T23:08:44.338Z,0.80
2022-10-04T23:11:11.141Z,0.90
2022-10-04T23:13:37.978Z,0.90
2022-10-04T23:16:19.423Z,0.80
2022-10-04T23:18:45.909Z,0.70
2022-10-04T23:21:22.379Z,0.80
2022-10-04T23:23:50.346Z,0.90
2022-10-04T23:26:23.273Z,0.70
2022-10-04T23:28:53.288Z,0.70
2022-10-04T23:31:24.710Z,0.80
2022-10-04T23:33:52.310Z,0.80
2022-10-04T23:36:18.921Z,0.88
2022-10-04T23:38:53.084Z,0.80
2022-10-04T23:41:19.909Z,0.98
2022-10-04T23:43:48.716Z,0.60
2022-10-04T23:46:18.182Z,0.60
2022-10-04T23:48:46.357Z,0.60
2022-10-04T23:51:16.156Z,0.60
2022-10-04T23:53:44.957Z,0.65
2022-10-04T23:56:18.628Z,0.82
2022-10-04T23:58:45.661Z,0.82
